Time;durP1;ratioP1;P1;durP2;ratioP2;P2;SDS_P1;SDS_P2;PMS_P1;PMS_P2;Temp;Humidity;BMP_temperature;BMP_pressure;BME280_temperature;BME280_humidity;BME280_pressure;Samples;Min_cycle;Max_cycle;Signal;HPM_P1;HPM_P2
2021/08/01 00:00:22;;;;;;;5.75;4.90;;;18.20;99.90;;;;;;2104879;28;20421;-69
2021/08/01 00:01:24;;;;;;;5.10;4.70;;;18.10;99.90;;;;;;2104829;28;20028;-69
2021/08/01 00:02:24;;;;;;;6.47;4.95;;;18.10;99.90;;;;;;2107318;28;20422;-69
2021/08/01 00:03:25;;;;;;;6.18;5.30;;;18.10;99.90;;;;;;2112243;28;20088;-69
2021/08/01 00:04:26;;;;;;;5.45;5.05;;;18.10;99.90;;;;;;2105549;28;20026;-69
2021/08/01 00:05:26;;;;;;;5.13;4.70;;;18.10;99.90;;;;;;2105501;28;20016;-69
2021/08/01 00:06:27;;;;;;;5.10;4.38;;;18.10;99.90;;;;;;2105566;28;20032;-69
2021/08/01 00:07:27;;;;;;;5.32;4.82;;;18.10;99.90;;;;;;2105414;28;20020;-69
2021/08/01 00:08:28;;;;;;;5.20;4.80;;;18.10;99.90;;;;;;2105426;28;20047;-69
2021/08/01 00:09:28;;;;;;;7.32;6.28;;;18.10;99.90;;;;;;2105179;28;20518;-69
2021/08/01 00:10:29;;;;;;;7.20;6.50;;;18.00;99.90;;;;;;2105254;28;20486;-69
2021/08/01 00:11:30;;;;;;;6.95;6.15;;;18.00;99.90;;;;;;2104850;28;20107;-69
2021/08/01 00:12:31;;;;;;;5.45;5.03;;;18.00;99.90;;;;;;2105455;28;20552;-69
2021/08/01 00:13:32;;;;;;;6.22;5.63;;;18.00;99.90;;;;;;2104841;28;20064;-69
2021/08/01 00:14:32;;;;;;;6.57;5.93;;;18.00;99.90;;;;;;2105142;28;20028;-69
2021/08/01 00:15:33;;;;;;;5.97;5.38;;;18.00;99.90;;;;;;2107965;28;20107;-69
2021/08/01 00:16:34;;;;;;;7.15;5.63;;;18.00;99.90;;;;;;2114028;28;20364;-69
2021/08/01 00:17:34;;;;;;;5.95;5.30;;;18.00;99.90;;;;;;2113717;28;20020;-69
2021/08/01 00:18:35;;;;;;;6.90;6.15;;;18.00;99.90;;;;;;2113863;28;20024;-69
2021/08/01 00:19:36;;;;;;;6.75;6.10;;;18.00;99.90;;;;;;2113710;28;20043;-69
2021/08/01 00:20:36;;;;;;;6.88;6.25;;;18.00;99.90;;;;;;2113531;28;20034;-69
2021/08/01 00:21:37;;;;;;;7.38;6.70;;;18.00;99.90;;;;;;2113513;28;20034;-69
2021/08/01 00:22:37;;;;;;;10.15;8.18;;;18.00;99.90;;;;;;2113183;28;20027;-69
2021/08/01 00:23:38;;;;;;;9.32;7.25;;;18.00;99.90;;;;;;2113598;28;20483;-69
2021/08/01 00:24:38;;;;;;;8.10;7.38;;;18.00;99.90;;;;;;2114067;28;20035;-69
2021/08/01 00:25:39;;;;;;;8.00;6.50;;;17.90;99.90;;;;;;2113231;28;20020;-69
2021/08/01 00:26:39;;;;;;;7.35;6.43;;;18.00;99.90;;;;;;2113735;28;20034;-69
2021/08/01 00:27:41;;;;;;;7.68;6.72;;;18.00;99.90;;;;;;2113641;28;20042;-69
2021/08/01 00:28:41;;;;;;;8.90;7.88;;;18.00;99.90;;;;;;2113872;28;20118;-69
2021/08/01 00:29:42;;;;;;;7.22;6.53;;;18.00;99.90;;;;;;2108640;28;20024;-69
2021/08/01 00:30:42;;;;;;;7.68;7.03;;;18.00;99.90;;;;;;2112762;28;20035;-69
2021/08/01 00:31:43;;;;;;;6.70;5.97;;;18.00;99.90;;;;;;2113371;28;20061;-69
2021/08/01 00:32:44;;;;;;;8.18;7.35;;;17.90;99.90;;;;;;2112379;28;20024;-69
2021/08/01 00:33:44;;;;;;;8.43;6.22;;;17.90;99.90;;;;;;2100128;28;20107;-69
2021/08/01 00:34:45;;;;;;;8.70;7.90;;;17.90;99.90;;;;;;2097949;28;20021;-69
2021/08/01 00:35:46;;;;;;;8.98;7.30;;;17.90;99.90;;;;;;2105252;28;20020;-69
2021/08/01 00:36:46;;;;;;;7.25;6.53;;;17.90;99.90;;;;;;2104992;28;20163;-69
2021/08/01 00:37:47;;;;;;;7.60;6.88;;;17.90;99.90;;;;;;2105473;28;20387;-69
2021/08/01 00:38:47;;;;;;;7.28;6.47;;;17.90;99.90;;;;;;2104925;28;20042;-69
2021/08/01 00:39:48;;;;;;;8.18;7.38;;;17.90;99.90;;;;;;2105338;28;20081;-69
2021/08/01 00:40:48;;;;;;;9.10;8.30;;;17.90;99.90;;;;;;2104757;28;20097;-69
2021/08/01 00:41:49;;;;;;;8.40;7.65;;;17.90;99.90;;;;;;2104858;28;20032;-69
2021/08/01 00:42:50;;;;;;;8.10;7.30;;;17.90;99.90;;;;;;2104513;28;20012;-69
2021/08/01 00:43:51;;;;;;;9.13;8.32;;;17.90;99.90;;;;;;2104775;28;20039;-69
2021/08/01 00:44:51;;;;;;;8.63;7.80;;;17.90;99.90;;;;;;2109158;28;20035;-69
2021/08/01 00:45:52;;;;;;;8.70;7.97;;;17.90;99.90;;;;;;2107561;28;20032;-69
2021/08/01 00:46:52;;;;;;;6.38;5.82;;;17.90;99.90;;;;;;2104701;28;20028;-69
2021/08/01 00:47:53;;;;;;;7.22;6.63;;;17.90;99.90;;;;;;2107394;28;20103;-69
2021/08/01 00:48:53;;;;;;;6.93;6.32;;;17.90;99.90;;;;;;2113483;28;20467;-69
2021/08/01 00:49:54;;;;;;;8.10;7.30;;;17.90;99.90;;;;;;2105739;28;20080;-69
2021/08/01 00:50:55;;;;;;;7.65;6.95;;;17.90;99.90;;;;;;2104570;28;20053;-69
2021/08/01 00:51:56;;;;;;;6.40;5.90;;;17.90;99.90;;;;;;2105260;28;20031;-69
2021/08/01 00:52:57;;;;;;;7.95;7.10;;;17.80;99.90;;;;;;2103914;28;20725;-69
2021/08/01 00:53:59;;;;;;;7.10;6.43;;;17.90;99.90;;;;;;2104428;28;20095;-69
2021/08/01 00:55:00;;;;;;;8.45;7.55;;;17.90;99.90;;;;;;2104328;28;20545;-69
2021/08/01 00:56:01;;;;;;;8.57;7.68;;;17.80;99.90;;;;;;2104145;28;20458;-69
2021/08/01 00:57:02;;;;;;;7.88;7.13;;;17.80;99.90;;;;;;2104932;28;20077;-69
2021/08/01 00:58:02;;;;;;;8.77;7.80;;;17.80;99.90;;;;;;2104956;28;20016;-69
2021/08/01 00:59:03;;;;;;;7.97;7.10;;;17.80;99.90;;;;;;2104845;28;20022;-69
2021/08/01 01:00:24;;;;;;;8.18;7.38;;;17.80;99.90;;;;;;2105148;28;20019;-69
2021/08/01 01:01:48;;;;;;;8.98;8.07;;;17.80;99.90;;;;;;2103346;28;20024;-69
2021/08/01 01:02:49;;;;;;;8.10;7.30;;;17.70;99.90;;;;;;2104486;28;20414;-69
2021/08/01 01:04:16;;;;;;;7.90;7.20;;;17.70;99.90;;;;;;2104914;28;20032;-69
2021/08/01 01:05:25;;;;;;;7.30;6.70;;;17.70;99.90;;;;;;2104984;28;20043;-69
2021/08/01 01:06:34;;;;;;;7.32;6.72;;;17.70;99.90;;;;;;2105072;28;20472;-69
2021/08/01 01:07:37;;;;;;;7.85;7.13;;;17.70;99.90;;;;;;2104788;28;20034;-69
2021/08/01 01:08:59;;;;;;;7.43;6.68;;;17.70;99.90;;;;;;2105005;28;20020;-69
2021/08/01 01:10:07;;;;;;;7.65;6.95;;;17.60;99.90;;;;;;2104547;28;20054;-69
2021/08/01 01:11:09;;;;;;;7.93;7.22;;;17.60;99.90;;;;;;2104899;28;20020;-69
2021/08/01 01:12:13;;;;;;;8.35;7.55;;;17.60;99.90;;;;;;2103790;28;20020;-69
2021/08/01 01:13:29;;;;;;;6.93;6.32;;;17.60;99.90;;;;;;2104706;28;20020;-69
2021/08/01 01:14:32;;;;;;;7.05;6.32;;;17.60;99.90;;;;;;2104577;28;20046;-69
2021/08/01 01:15:37;;;;;;;8.60;7.88;;;17.60;99.90;;;;;;2107495;28;20587;-69
2021/08/01 01:16:45;;;;;;;9.02;8.13;;;17.60;99.90;;;;;;2113422;28;20020;-69
2021/08/01 01:17:50;;;;;;;7.65;6.95;;;17.60;99.90;;;;;;2112887;28;20371;-69
2021/08/01 01:18:54;;;;;;;7.50;6.82;;;17.60;99.90;;;;;;2113103;28;20027;-70
2021/08/01 01:20:33;;;;;;;7.50;6.80;;;17.60;99.90;;;;;;2113212;28;20102;-69
2021/08/01 01:21:56;;;;;;;8.07;7.28;;;17.50;99.90;;;;;;2113553;28;20027;-69
2021/08/01 01:23:31;;;;;;;7.53;6.65;;;17.50;99.90;;;;;;2113216;28;20035;-69
2021/08/01 01:24:34;;;;;;;10.38;7.85;;;17.50;99.90;;;;;;2113292;28;20023;-69
2021/08/01 01:25:38;;;;;;;8.35;7.45;;;17.40;99.90;;;;;;2113071;28;20066;-69
2021/08/01 01:26:55;;;;;;;8.52;7.68;;;17.50;99.90;;;;;;2112741;27;20425;-69
2021/08/01 01:28:14;;;;;;;9.35;8.48;;;17.50;99.90;;;;;;2113488;28;20019;-69
2021/08/01 01:29:26;;;;;;;7.75;7.05;;;17.40;99.90;;;;;;2106715;28;20043;-69
2021/08/01 01:30:29;;;;;;;7.95;6.75;;;17.50;99.90;;;;;;2104780;28;20028;-69
2021/08/01 01:31:48;;;;;;;10.30;8.10;;;17.40;99.90;;;;;;2104422;28;20115;-69
2021/08/01 01:32:56;;;;;;;7.05;6.50;;;17.40;99.90;;;;;;2096039;28;20025;-69
2021/08/01 01:34:09;;;;;;;7.63;6.93;;;17.40;99.90;;;;;;2104774;28;20024;-69
2021/08/01 01:35:18;;;;;;;7.55;6.95;;;17.40;99.90;;;;;;2104498;28;20017;-69
2021/08/01 01:36:28;;;;;;;8.70;7.80;;;17.50;99.90;;;;;;2104844;28;20030;-69
2021/08/01 01:37:30;;;;;;;8.68;7.88;;;17.40;99.90;;;;;;2104893;28;20024;-70
2021/08/01 01:38:31;;;;;;;9.15;8.23;;;17.40;99.90;;;;;;2104430;28;20475;-69
2021/08/01 01:39:36;;;;;;;8.02;7.32;;;17.40;99.90;;;;;;2104656;28;20028;-69
2021/08/01 01:40:38;;;;;;;6.70;6.10;;;17.40;99.90;;;;;;2104474;28;20032;-69
2021/08/01 01:41:43;;;;;;;8.27;7.45;;;17.40;99.90;;;;;;2104741;28;20073;-69
2021/08/01 01:42:45;;;;;;;7.30;6.70;;;17.40;99.90;;;;;;2103871;28;20387;-69
2021/08/01 01:43:46;;;;;;;7.53;6.88;;;17.40;99.90;;;;;;2113250;28;20387;-69
2021/08/01 01:44:47;;;;;;;7.53;6.82;;;17.40;99.90;;;;;;2101705;28;20032;-69
2021/08/01 01:45:47;;;;;;;9.20;8.40;;;17.40;99.90;;;;;;2105096;28;20024;-69
2021/08/01 01:46:49;;;;;;;9.18;8.27;;;17.40;99.90;;;;;;2104483;28;20597;-69
2021/08/01 01:47:50;;;;;;;10.25;7.82;;;17.40;99.90;;;;;;2107253;28;20020;-69
2021/08/01 01:48:52;;;;;;;8.18;7.47;;;17.40;99.90;;;;;;2103831;28;20039;-69
2021/08/01 01:49:57;;;;;;;7.93;7.13;;;17.40;99.90;;;;;;2104279;28;20020;-70
2021/08/01 01:50:58;;;;;;;7.85;7.15;;;17.40;99.90;;;;;;2104483;28;20034;-69
2021/08/01 01:51:59;;;;;;;7.88;7.20;;;17.40;99.90;;;;;;2104581;28;20027;-69
2021/08/01 01:53:00;;;;;;;7.45;6.75;;;17.40;99.90;;;;;;2104238;28;20494;-69
2021/08/01 01:54:00;;;;;;;9.90;9.07;;;17.40;99.90;;;;;;2104965;28;20110;-69
2021/08/01 01:55:04;;;;;;;9.90;8.98;;;17.40;99.90;;;;;;2103495;28;20020;-69
2021/08/01 01:56:07;;;;;;;10.70;9.70;;;17.30;99.90;;;;;;2103767;28;20026;-69
2021/08/01 01:57:08;;;;;;;9.25;8.45;;;17.40;99.90;;;;;;2104460;28;20084;-69
2021/08/01 01:58:11;;;;;;;8.95;8.00;;;17.30;99.90;;;;;;2110937;28;20110;-69
2021/08/01 01:59:12;;;;;;;9.48;8.57;;;17.30;99.90;;;;;;2112844;28;20073;-69
2021/08/01 02:00:14;;;;;;;8.98;8.20;;;17.30;99.90;;;;;;2112761;28;20023;-69
2021/08/01 02:01:16;;;;;;;8.98;8.18;;;17.40;99.90;;;;;;2114080;28;20156;-69
2021/08/01 02:02:17;;;;;;;10.70;9.77;;;17.40;99.90;;;;;;2114444;28;20092;-69
2021/08/01 02:03:18;;;;;;;11.32;10.27;;;17.30;99.90;;;;;;2113820;28;20057;-69
2021/08/01 02:04:18;;;;;;;8.93;8.05;;;17.40;99.90;;;;;;2114481;28;20042;-69
2021/08/01 02:05:19;;;;;;;9.68;8.82;;;17.30;99.90;;;;;;2114441;28;20118;-69
2021/08/01 02:06:20;;;;;;;9.45;8.48;;;17.30;99.90;;;;;;2106981;28;20535;-69
2021/08/01 02:07:20;;;;;;;9.63;8.70;;;17.40;99.90;;;;;;2105724;28;20032;-69
2021/08/01 02:08:21;;;;;;;10.73;9.82;;;17.40;99.90;;;;;;2105899;28;20487;-69
2021/08/01 02:09:32;;;;;;;10.13;9.20;;;17.40;99.90;;;;;;2108512;28;20032;-69
2021/08/01 02:10:45;;;;;;;10.85;9.75;;;17.40;99.90;;;;;;2106039;28;20032;-69
2021/08/01 02:12:07;;;;;;;8.60;7.60;;;17.30;99.90;;;;;;2105580;28;20066;-69
2021/08/01 02:13:08;;;;;;;10.43;9.48;;;17.30;99.90;;;;;;2105631;28;20028;-69
2021/08/01 02:14:18;;;;;;;11.32;10.23;;;17.30;99.90;;;;;;2105410;28;20107;-69
2021/08/01 02:15:21;;;;;;;10.02;9.15;;;17.30;99.90;;;;;;2105909;28;20024;-69
2021/08/01 02:16:29;;;;;;;10.77;9.77;;;17.30;99.90;;;;;;2106071;28;20024;-69
2021/08/01 02:17:38;;;;;;;10.93;9.85;;;17.30;99.90;;;;;;2105936;28;20016;-69
2021/08/01 02:18:49;;;;;;;9.68;8.88;;;17.30;99.90;;;;;;2105905;28;20012;-69
2021/08/01 02:19:52;;;;;;;10.43;9.43;;;17.40;99.90;;;;;;2105781;28;20020;-69
2021/08/01 02:20:54;;;;;;;9.30;8.32;;;17.30;99.90;;;;;;2112350;28;20039;-69
2021/08/01 02:21:55;;;;;;;9.30;7.50;;;17.40;99.90;;;;;;2114093;28;20038;-69
2021/08/01 02:22:58;;;;;;;9.40;8.60;;;17.40;99.90;;;;;;2113761;28;20015;-69
2021/08/01 02:24:02;;;;;;;10.98;9.52;;;17.40;99.90;;;;;;2113974;28;20035;-69
2021/08/01 02:25:05;;;;;;;10.55;9.52;;;17.40;99.90;;;;;;2114446;28;20019;-69
2021/08/01 02:26:06;;;;;;;9.55;8.70;;;17.40;99.90;;;;;;2114351;28;20020;-69
2021/08/01 02:27:08;;;;;;;10.77;9.75;;;17.40;99.90;;;;;;2114303;28;20031;-70
2021/08/01 02:28:10;;;;;;;10.00;9.00;;;17.40;99.90;;;;;;2114185;28;20031;-70
2021/08/01 02:29:11;;;;;;;11.63;10.43;;;17.40;99.90;;;;;;2113240;28;20074;-70
2021/08/01 02:30:13;;;;;;;9.27;8.38;;;17.40;99.90;;;;;;2108941;28;20040;-70
2021/08/01 02:31:15;;;;;;;10.13;9.18;;;17.40;99.90;;;;;;2114388;28;20027;-69
2021/08/01 02:32:18;;;;;;;10.68;9.77;;;17.40;99.90;;;;;;2113924;28;20423;-69
2021/08/01 02:33:18;;;;;;;10.68;9.65;;;17.40;99.90;;;;;;2107950;28;20411;-69
2021/08/01 02:34:20;;;;;;;9.23;8.32;;;17.40;99.90;;;;;;2097590;28;20029;-69
2021/08/01 02:35:21;;;;;;;10.07;9.18;;;17.40;99.90;;;;;;2103130;28;20149;-69
2021/08/01 02:36:24;;;;;;;11.05;9.73;;;17.40;99.90;;;;;;2105006;28;20021;-69
2021/08/01 02:37:27;;;;;;;9.02;8.13;;;17.40;99.90;;;;;;2105973;28;20065;-69
2021/08/01 02:38:28;;;;;;;9.38;8.45;;;17.40;99.90;;;;;;2105826;28;20024;-69
2021/08/01 02:39:30;;;;;;;12.15;9.95;;;17.40;99.90;;;;;;2105584;28;20031;-69
2021/08/01 02:40:36;;;;;;;9.95;8.23;;;17.40;99.90;;;;;;2105701;28;20035;-69
2021/08/01 02:41:39;;;;;;;11.65;8.95;;;17.50;99.90;;;;;;2101827;28;20371;-70
2021/08/01 02:42:41;;;;;;;9.07;8.27;;;17.40;99.90;;;;;;2105453;28;20024;-69
2021/08/01 02:43:42;;;;;;;10.52;9.55;;;17.40;99.90;;;;;;2105854;28;20032;-69
2021/08/01 02:44:44;;;;;;;10.20;9.23;;;17.50;99.90;;;;;;2105591;28;20020;-69
2021/08/01 02:45:46;;;;;;;11.07;8.68;;;17.50;99.90;;;;;;2105917;28;20016;-70
2021/08/01 02:46:48;;;;;;;9.75;8.77;;;17.50;99.90;;;;;;2103810;28;20031;-70
2021/08/01 02:47:50;;;;;;;9.13;8.27;;;17.50;99.90;;;;;;2105468;28;20012;-70
2021/08/01 02:48:54;;;;;;;10.45;9.32;;;17.50;99.90;;;;;;2104971;28;20085;-69
2021/08/01 02:49:57;;;;;;;10.85;9.60;;;17.50;99.90;;;;;;2105476;28;20059;-70
2021/08/01 02:51:01;;;;;;;10.93;9.23;;;17.50;99.90;;;;;;2105743;28;20086;-69
2021/08/01 02:52:04;;;;;;;11.40;10.23;;;17.50;99.90;;;;;;2105352;28;20024;-69
2021/08/01 02:53:10;;;;;;;10.15;9.23;;;17.50;99.90;;;;;;2105334;28;20024;-69
2021/08/01 02:54:11;;;;;;;8.35;7.47;;;17.50;99.90;;;;;;2105836;28;20039;-70
2021/08/01 02:55:15;;;;;;;10.52;9.23;;;17.50;99.90;;;;;;2105682;28;20043;-70
2021/08/01 02:56:20;;;;;;;10.43;9.23;;;17.50;99.90;;;;;;2105538;28;20074;-70
2021/08/01 02:57:24;;;;;;;9.35;8.45;;;17.50;99.90;;;;;;2105731;28;20032;-69
2021/08/01 02:58:27;;;;;;;9.93;8.05;;;17.50;99.90;;;;;;2105954;28;20021;-69
2021/08/01 02:59:30;;;;;;;10.35;9.30;;;17.50;99.90;;;;;;2105424;28;20460;-69
2021/08/01 03:00:32;;;;;;;8.18;7.43;;;17.50;99.90;;;;;;2105736;28;20024;-69
2021/08/01 03:01:36;;;;;;;9.10;8.23;;;17.50;99.90;;;;;;2113223;28;20031;-69
2021/08/01 03:02:38;;;;;;;8.55;7.75;;;17.50;99.90;;;;;;2112988;28;20035;-69
2021/08/01 03:03:41;;;;;;;10.63;9.52;;;17.50;99.90;;;;;;2112565;28;20024;-69
2021/08/01 03:04:42;;;;;;;8.15;7.43;;;17.50;99.90;;;;;;2107440;28;20024;-70
2021/08/01 03:05:44;;;;;;;8.68;7.88;;;17.50;99.90;;;;;;2104552;28;20078;-70
2021/08/01 03:06:44;;;;;;;9.70;8.70;;;17.50;99.90;;;;;;2105026;28;20052;-70
2021/08/01 03:07:45;;;;;;;9.90;8.90;;;17.50;99.90;;;;;;2104709;28;20024;-70
2021/08/01 03:08:47;;;;;;;11.30;10.13;;;17.50;99.90;;;;;;2104320;28;20039;-70
2021/08/01 03:09:49;;;;;;;10.68;9.57;;;17.50;99.90;;;;;;2103588;28;20046;-70
2021/08/01 03:10:50;;;;;;;10.52;8.98;;;17.50;99.90;;;;;;2109709;28;20069;-70
2021/08/01 03:11:50;;;;;;;9.82;8.93;;;17.50;99.90;;;;;;2111964;28;20051;-70
2021/08/01 03:12:51;;;;;;;11.30;9.88;;;17.50;99.90;;;;;;2112396;28;20028;-70
2021/08/01 03:13:52;;;;;;;10.65;9.65;;;17.50;99.90;;;;;;2112559;28;20050;-70
2021/08/01 03:14:52;;;;;;;11.48;9.35;;;17.50;99.90;;;;;;2112839;28;20047;-70
2021/08/01 03:15:53;;;;;;;9.85;8.63;;;17.50;99.90;;;;;;2112714;28;20024;-69
2021/08/01 03:16:56;;;;;;;11.30;10.20;;;17.50;99.90;;;;;;2113009;28;20053;-69
2021/08/01 03:17:57;;;;;;;10.23;9.30;;;17.50;99.90;;;;;;2112416;28;20024;-70
2021/08/01 03:18:57;;;;;;;11.85;10.70;;;17.50;99.90;;;;;;2112824;28;20026;-70
2021/08/01 03:19:58;;;;;;;11.82;10.70;;;17.50;99.90;;;;;;2106657;28;20020;-70
2021/08/01 03:20:58;;;;;;;10.45;9.45;;;17.50;99.90;;;;;;2104290;28;20016;-70
2021/08/01 03:21:59;;;;;;;10.27;9.27;;;17.50;99.90;;;;;;2104020;28;20103;-70
2021/08/01 03:22:59;;;;;;;9.15;8.25;;;17.50;99.90;;;;;;2104227;28;20076;-70
2021/08/01 03:24:00;;;;;;;14.07;12.18;;;17.50;99.90;;;;;;2103654;28;20031;-70
2021/08/01 03:25:01;;;;;;;12.95;11.45;;;17.50;99.90;;;;;;2103708;28;20387;-70
2021/08/01 03:26:01;;;;;;;13.25;12.05;;;17.50;99.90;;;;;;2104339;28;20028;-70
2021/08/01 03:27:02;;;;;;;13.13;11.93;;;17.60;99.90;;;;;;2103923;28;20081;-70
2021/08/01 03:28:03;;;;;;;13.75;12.43;;;17.50;99.90;;;;;;2104349;28;20363;-70
2021/08/01 03:29:03;;;;;;;13.45;12.25;;;17.60;99.90;;;;;;2103866;28;20020;-70
2021/08/01 03:30:04;;;;;;;11.50;10.30;;;17.60;99.90;;;;;;2107000;28;20027;-69
2021/08/01 03:31:05;;;;;;;11.15;10.18;;;17.60;99.90;;;;;;2112819;28;20028;-69
2021/08/01 03:32:06;;;;;;;12.05;10.82;;;17.60;99.90;;;;;;2112506;28;20020;-70
2021/08/01 03:33:06;;;;;;;13.85;11.48;;;17.50;99.90;;;;;;2109945;28;20102;-70
2021/08/01 03:34:07;;;;;;;12.70;11.45;;;17.60;99.90;;;;;;2096095;28;20028;-70
2021/08/01 03:35:08;;;;;;;12.35;11.05;;;17.60;99.90;;;;;;2100709;28;20533;-70
2021/08/01 03:36:08;;;;;;;13.15;11.93;;;17.60;99.90;;;;;;2105640;28;20020;-70
2021/08/01 03:37:09;;;;;;;14.18;11.55;;;17.60;99.90;;;;;;2106022;28;20024;-70
2021/08/01 03:38:09;;;;;;;13.98;12.63;;;17.60;99.90;;;;;;2105928;28;20020;-70
2021/08/01 03:39:10;;;;;;;11.40;10.30;;;17.60;99.90;;;;;;2105621;28;20016;-70
2021/08/01 03:40:11;;;;;;;10.77;9.77;;;17.60;99.90;;;;;;2111265;28;20476;-70
2021/08/01 03:41:12;;;;;;;10.55;9.55;;;17.60;99.90;;;;;;2113234;28;20107;-70
2021/08/01 03:42:12;;;;;;;10.73;8.70;;;17.60;99.90;;;;;;2113725;28;20475;-70
2021/08/01 03:43:13;;;;;;;9.90;9.10;;;17.60;99.90;;;;;;2113712;28;20035;-70
2021/08/01 03:44:13;;;;;;;10.82;9.88;;;17.60;99.90;;;;;;2112493;28;20157;-70
2021/08/01 03:45:14;;;;;;;10.60;9.52;;;17.50;99.90;;;;;;2099154;28;20058;-70
2021/08/01 03:46:14;;;;;;;11.13;10.02;;;17.50;99.90;;;;;;2112020;28;20153;-70
2021/08/01 03:47:15;;;;;;;11.13;10.13;;;17.50;99.90;;;;;;2106112;28;20030;-70
2021/08/01 03:48:16;;;;;;;11.70;10.60;;;17.50;99.90;;;;;;2108898;28;20500;-70
2021/08/01 03:49:16;;;;;;;11.20;10.10;;;17.50;99.90;;;;;;2105475;28;20360;-70
2021/08/01 03:50:17;;;;;;;11.63;10.18;;;17.50;99.90;;;;;;2105731;28;20113;-70
2021/08/01 03:51:17;;;;;;;11.55;10.20;;;17.50;99.90;;;;;;2105372;28;20072;-70
2021/08/01 03:52:18;;;;;;;11.23;10.13;;;17.50;99.90;;;;;;2105450;28;20024;-70
2021/08/01 03:53:18;;;;;;;12.77;11.55;;;17.50;99.90;;;;;;2100309;28;20029;-70
2021/08/01 03:54:19;;;;;;;10.90;9.93;;;17.50;99.90;;;;;;2113518;27;20047;-70
2021/08/01 03:55:19;;;;;;;11.15;10.15;;;17.50;99.90;;;;;;2112716;28;20367;-70
2021/08/01 03:56:20;;;;;;;11.70;10.65;;;17.50;99.90;;;;;;2105695;28;20043;-70
2021/08/01 03:57:20;;;;;;;11.80;10.65;;;17.50;99.90;;;;;;2105664;28;20099;-70
2021/08/01 03:58:21;;;;;;;13.02;11.63;;;17.50;99.90;;;;;;2105440;28;20475;-70
2021/08/01 03:59:21;;;;;;;12.10;11.07;;;17.50;99.90;;;;;;2105659;28;20085;-70
2021/08/01 04:00:22;;;;;;;10.70;9.68;;;17.50;99.90;;;;;;2104488;28;20028;-70
2021/08/01 04:01:25;;;;;;;12.40;10.98;;;17.50;99.90;;;;;;2111801;28;20016;-70
2021/08/01 04:02:25;;;;;;;10.90;9.90;;;17.50;99.90;;;;;;2113455;28;20032;-70
2021/08/01 04:03:26;;;;;;;10.50;9.50;;;17.50;99.90;;;;;;2113761;28;20463;-70
2021/08/01 04:04:27;;;;;;;10.40;9.40;;;17.50;99.90;;;;;;2113911;28;20536;-70
2021/08/01 04:05:27;;;;;;;10.48;9.00;;;17.50;99.90;;;;;;2113942;28;20023;-70
2021/08/01 04:06:27;;;;;;;11.43;10.25;;;17.50;99.90;;;;;;2113918;28;20479;-70
2021/08/01 04:07:28;;;;;;;13.13;11.93;;;17.50;99.90;;;;;;2114222;28;20070;-70
2021/08/01 04:08:29;;;;;;;11.85;10.65;;;17.50;99.90;;;;;;2114326;28;20019;-70
2021/08/01 04:09:29;;;;;;;10.93;10.00;;;17.50;99.90;;;;;;2113044;28;20055;-70
2021/08/01 04:10:30;;;;;;;15.55;14.15;;;17.50;99.90;;;;;;2105410;28;20036;-70
2021/08/01 04:11:32;;;;;;;15.30;13.90;;;17.50;99.90;;;;;;2105375;28;20024;-70
2021/08/01 04:12:33;;;;;;;15.52;13.93;;;17.50;99.90;;;;;;2110334;28;20110;-70
2021/08/01 04:13:34;;;;;;;15.57;13.90;;;17.50;99.90;;;;;;2113372;28;20486;-70
2021/08/01 04:14:34;;;;;;;16.77;15.07;;;17.50;99.90;;;;;;2114033;28;20259;-70
2021/08/01 04:15:35;;;;;;;16.65;15.05;;;17.50;99.90;;;;;;2112625;28;20069;-70
2021/08/01 04:16:36;;;;;;;16.77;15.00;;;17.50;99.90;;;;;;2108933;28;20028;-70
2021/08/01 04:17:37;;;;;;;17.15;15.40;;;17.50;99.90;;;;;;2110682;28;20008;-70
2021/08/01 04:18:37;;;;;;;17.17;15.05;;;17.50;99.90;;;;;;2112296;28;20020;-70
2021/08/01 04:19:38;;;;;;;17.13;15.25;;;17.50;99.90;;;;;;2112090;28;20020;-70
2021/08/01 04:20:38;;;;;;;16.60;14.57;;;17.50;99.90;;;;;;2104967;28;20432;-70
2021/08/01 04:21:40;;;;;;;17.45;15.73;;;17.50;99.90;;;;;;2105260;28;20130;-70
2021/08/01 04:22:42;;;;;;;18.15;16.35;;;17.50;99.90;;;;;;2105061;28;20467;-70
2021/08/01 04:23:43;;;;;;;16.85;14.63;;;17.50;99.90;;;;;;2105476;28;20024;-70
2021/08/01 04:24:43;;;;;;;16.40;14.80;;;17.50;99.90;;;;;;2105429;28;20028;-70
2021/08/01 04:25:44;;;;;;;16.83;15.07;;;17.50;99.90;;;;;;2105410;28;20020;-70
2021/08/01 04:26:44;;;;;;;15.98;14.52;;;17.50;99.90;;;;;;2105320;28;20051;-70
2021/08/01 04:27:45;;;;;;;15.90;14.30;;;17.50;99.90;;;;;;2113098;28;20035;-70
2021/08/01 04:28:46;;;;;;;16.00;14.43;;;17.50;99.90;;;;;;2112923;28;20100;-70
2021/08/01 04:29:46;;;;;;;15.80;14.40;;;17.50;99.90;;;;;;2105274;28;20474;-70
2021/08/01 04:30:47;;;;;;;16.08;14.45;;;17.50;99.90;;;;;;2105641;28;20028;-70
2021/08/01 04:31:47;;;;;;;16.15;14.38;;;17.50;99.90;;;;;;2105239;28;20028;-70
2021/08/01 04:32:48;;;;;;;16.17;14.63;;;17.50;99.90;;;;;;2104913;28;20585;-70
2021/08/01 04:33:49;;;;;;;16.33;14.85;;;17.60;99.90;;;;;;2105057;28;20020;-70
2021/08/01 04:34:49;;;;;;;16.40;14.45;;;17.60;99.90;;;;;;2105389;28;20435;-70
2021/08/01 04:35:50;;;;;;;17.25;15.52;;;17.60;99.90;;;;;;2105448;28;20059;-70
2021/08/01 04:36:51;;;;;;;16.42;14.82;;;17.60;99.90;;;;;;2105447;28;20032;-70
2021/08/01 04:37:51;;;;;;;15.65;13.60;;;17.60;99.90;;;;;;2105434;28;20016;-70
2021/08/01 04:38:52;;;;;;;15.68;14.07;;;17.60;99.90;;;;;;2105491;28;20429;-70
2021/08/01 04:39:53;;;;;;;16.27;14.65;;;17.60;99.90;;;;;;2105122;28;20020;-70
2021/08/01 04:40:54;;;;;;;14.43;13.10;;;17.60;99.90;;;;;;2105396;28;20028;-70
2021/08/01 04:41:54;;;;;;;17.40;15.18;;;17.60;99.90;;;;;;2105035;28;20078;-70
2021/08/01 04:42:55;;;;;;;15.68;14.07;;;17.60;99.90;;;;;;2104684;28;20016;-70
2021/08/01 04:43:55;;;;;;;15.30;13.85;;;17.70;99.90;;;;;;2105275;28;20028;-70
2021/08/01 04:44:56;;;;;;;16.42;14.82;;;17.70;99.90;;;;;;2105308;28;20495;-70
2021/08/01 04:45:56;;;;;;;15.65;14.00;;;17.70;99.90;;;;;;2105050;28;20375;-70
2021/08/01 04:46:57;;;;;;;16.88;14.77;;;17.70;99.90;;;;;;2106432;28;20081;-70
2021/08/01 04:47:57;;;;;;;15.52;13.85;;;17.70;99.90;;;;;;2105189;28;20081;-70
2021/08/01 04:48:58;;;;;;;14.48;13.05;;;17.70;99.90;;;;;;2105404;28;20529;-70
2021/08/01 04:49:58;;;;;;;14.45;12.98;;;17.70;99.90;;;;;;2104935;28;20027;-70
2021/08/01 04:50:59;;;;;;;14.00;12.50;;;17.70;99.90;;;;;;2104520;28;20032;-70
2021/08/01 04:51:59;;;;;;;15.75;13.82;;;17.80;99.90;;;;;;2104287;28;20089;-70
2021/08/01 04:53:00;;;;;;;15.20;13.75;;;17.80;99.90;;;;;;2104807;28;20388;-70
2021/08/01 04:54:00;;;;;;;15.52;13.90;;;17.70;99.90;;;;;;2104941;28;20040;-70
2021/08/01 04:55:01;;;;;;;14.57;13.13;;;17.80;99.90;;;;;;2104473;28;20024;-70
2021/08/01 04:56:02;;;;;;;15.80;14.10;;;17.80;99.90;;;;;;2104422;28;20479;-70
2021/08/01 04:57:03;;;;;;;14.10;12.65;;;17.80;99.90;;;;;;2105723;28;21080;-70
2021/08/01 04:58:04;;;;;;;13.55;12.20;;;17.80;99.90;;;;;;2104979;28;20099;-70
2021/08/01 04:59:04;;;;;;;14.23;12.82;;;17.80;99.90;;;;;;2105132;28;20012;-70
2021/08/01 05:00:06;;;;;;;13.77;12.38;;;17.80;99.90;;;;;;2104037;28;20072;-70
2021/08/01 05:01:14;;;;;;;16.70;13.70;;;17.80;99.90;;;;;;2096344;28;20476;-70
2021/08/01 05:02:14;;;;;;;15.18;13.65;;;17.90;99.90;;;;;;2104150;28;20494;-70
2021/08/01 05:03:15;;;;;;;14.18;12.25;;;17.90;99.90;;;;;;2104689;28;20020;-70
2021/08/01 05:04:15;;;;;;;14.25;12.70;;;17.90;99.90;;;;;;2105185;28;20051;-70
2021/08/01 05:05:16;;;;;;;12.80;11.50;;;17.90;99.90;;;;;;2105104;28;20048;-70
2021/08/01 05:06:17;;;;;;;13.20;11.00;;;17.90;99.90;;;;;;2104950;28;20063;-70
2021/08/01 05:07:17;;;;;;;11.85;10.60;;;17.90;99.90;;;;;;2105266;28;20035;-70
2021/08/01 05:08:18;;;;;;;12.50;11.23;;;18.00;99.90;;;;;;2105158;28;20032;-70
2021/08/01 05:09:18;;;;;;;13.85;12.45;;;17.90;99.90;;;;;;2104454;28;20028;-70
2021/08/01 05:10:19;;;;;;;15.13;12.90;;;18.00;99.90;;;;;;2104376;28;20032;-70
2021/08/01 05:11:19;;;;;;;14.32;12.85;;;18.00;99.90;;;;;;2104958;28;20442;-70
2021/08/01 05:12:20;;;;;;;14.13;12.65;;;18.00;99.90;;;;;;2105017;28;20066;-70
2021/08/01 05:13:20;;;;;;;15.63;12.65;;;18.00;99.90;;;;;;2104726;28;20028;-70
2021/08/01 05:14:21;;;;;;;14.80;13.23;;;18.00;99.90;;;;;;2104821;28;20028;-70
2021/08/01 05:15:21;;;;;;;13.00;11.75;;;18.00;99.90;;;;;;2104943;28;20047;-70
2021/08/01 05:16:22;;;;;;;14.68;12.25;;;18.00;99.90;;;;;;2105236;28;20032;-70
2021/08/01 05:17:22;;;;;;;15.32;12.55;;;18.10;99.90;;;;;;2104660;28;20026;-70
2021/08/01 05:18:23;;;;;;;14.20;12.70;;;18.10;99.90;;;;;;2105116;28;20109;-70
2021/08/01 05:19:24;;;;;;;13.73;12.25;;;18.10;99.90;;;;;;2104591;28;20024;-70
2021/08/01 05:20:24;;;;;;;13.60;12.15;;;18.10;99.90;;;;;;2108471;28;20098;-70
2021/08/01 05:21:25;;;;;;;13.02;11.77;;;18.10;99.90;;;;;;2113239;28;20110;-70